Huvudsida
METAR-TAF:

METAR-TAF

Flygplatser :

Uralsk flygplats

Oral, Kazakstan

latitud: 51-15N, longitud: 051-17E, höjd: 36 m

Aktuellt väderrapport

Denna rapport gjordes för 15 minuter sedan, klockan 13:30 UTC
Vind 10 kt från väst, varierande mellan väst/sydväst och nordväst
Temperatur 20°C
Fuktighet 24%
Tryck 1025 hPa
Sikt 10 km eller mer
Inga moln under 1 500 m eller inga cumulonimbus

METAR: UARR 271330Z 28005MPS 240V310 CAVOK 20/M01 Q1025 R22/CLRD70 NOSIG RMK QFE765/1020

Tid: 18:45 (13:45 UTC)


TAF: saknas

Aktuella väderrapporter och prognoser från 4000 flygplatser (METAR- och TAF-rapporter).

De tillgängliga stationerna syns som gula och röda prickar på kartan.

För musen över prickarna för att se namnen på stationerna.

Klicka sedan för att få väderrapporter och prognoser.

För att ändra kartan: Klicka på de gröna knapparna med ett svart kors på för att zooma in; den gröna knappen med ett streck på för att zooma ut; eller på de gröna pilarna för angränsande kartor.


METAR-TAF: